Time;durP1;ratioP1;P1;durP2;ratioP2;P2;SDS_P1;SDS_P2;PMS_P1;PMS_P2;Temp;Humidity;BMP_temperature;BMP_pressure;BME280_temperature;BME280_humidity;BME280_pressure;Samples;Min_cycle;Max_cycle;Signal;HPM_P1;HPM_P2
2023/06/10 00:00:27;;;;;;;14.77;13.30;;;15.80;50.80;;;;;;4825145;29;20079;-55
2023/06/10 00:02:53;;;;;;;18.05;12.88;;;15.80;48.60;;;;;;4825120;29;20125;-53
2023/06/10 00:05:21;;;;;;;16.17;13.27;;;15.70;50.70;;;;;;4824836;29;20187;-56
2023/06/10 00:07:48;;;;;;;17.10;13.20;;;15.60;54.10;;;;;;4839117;29;20046;-55
2023/06/10 00:10:13;;;;;;;20.65;14.20;;;15.60;60.90;;;;;;4824770;29;20031;-54
2023/06/10 00:12:40;;;;;;;14.82;13.25;;;15.50;58.90;;;;;;4825067;29;20088;-55
2023/06/10 00:15:06;;;;;;;15.23;12.02;;;15.40;54.20;;;;;;4824597;29;20489;-53
2023/06/10 00:17:32;;;;;;;14.55;13.05;;;15.40;60.40;;;;;;4824945;29;20110;-54
2023/06/10 00:19:58;;;;;;;19.02;12.55;;;15.30;56.60;;;;;;4824723;29;20229;-56
2023/06/10 00:22:29;;;;;;;15.88;13.57;;;15.30;57.80;;;;;;4838693;29;20037;-56
2023/06/10 00:24:55;;;;;;;19.52;13.20;;;15.20;56.20;;;;;;4824656;29;20031;-56
2023/06/10 00:27:21;;;;;;;15.07;12.75;;;15.10;55.10;;;;;;4824628;29;20087;-56
2023/06/10 00:29:47;;;;;;;19.33;12.27;;;15.10;55.90;;;;;;4838727;29;20040;-56
2023/06/10 00:32:12;;;;;;;14.10;12.50;;;15.00;51.70;;;;;;4824445;29;20027;-55
2023/06/10 00:34:38;;;;;;;14.93;12.20;;;15.00;51.90;;;;;;4824574;29;20040;-54
2023/06/10 00:37:04;;;;;;;13.50;11.95;;;14.90;55.50;;;;;;4824484;29;20038;-56
2023/06/10 00:39:29;;;;;;;18.65;12.50;;;14.80;59.80;;;;;;4824407;29;20065;-56
2023/06/10 00:41:55;;;;;;;15.90;11.98;;;14.80;60.70;;;;;;4824530;29;20035;-56
2023/06/10 00:44:21;;;;;;;18.23;11.18;;;14.70;60.40;;;;;;4824505;29;20035;-56
2023/06/10 00:46:47;;;;;;;13.43;10.98;;;14.60;60.20;;;;;;4824274;29;20552;-56
2023/06/10 00:49:13;;;;;;;15.73;11.82;;;14.50;64.60;;;;;;4824292;29;20073;-55
2023/06/10 00:51:39;;;;;;;14.63;12.43;;;14.40;63.30;;;;;;4824332;29;20022;-56
2023/06/10 00:54:06;;;;;;;15.50;12.43;;;14.40;65.80;;;;;;4824140;29;20073;-56
2023/06/10 00:56:34;;;;;;;12.05;10.75;;;14.40;65.30;;;;;;4824311;29;20030;-55
2023/06/10 00:59:00;;;;;;;15.77;11.43;;;14.40;66.50;;;;;;4824180;29;20059;-53
2023/06/10 01:01:26;;;;;;;16.55;12.20;;;14.40;67.50;;;;;;4838178;29;20054;-53
2023/06/10 01:03:52;;;;;;;27.08;12.20;;;14.40;69.50;;;;;;4824189;29;20032;-56
2023/06/10 01:06:47;;;;;;;13.93;11.50;;;14.40;72.10;;;;;;4824041;29;20109;-56
2023/06/10 01:09:23;;;;;;;14.05;11.82;;;14.40;70.80;;;;;;4823438;29;20027;-54
2023/06/10 01:12:08;;;;;;;19.60;12.48;;;14.40;67.70;;;;;;4824184;29;20037;-55
2023/06/10 01:14:35;;;;;;;15.55;11.70;;;14.30;68.80;;;;;;4824184;29;20117;-55
2023/06/10 01:17:03;;;;;;;14.43;12.85;;;14.30;70.50;;;;;;4823889;29;20027;-52
2023/06/10 01:19:30;;;;;;;14.80;12.88;;;14.20;76.40;;;;;;4823809;29;20038;-53
2023/06/10 01:22:00;;;;;;;15.70;14.00;;;14.10;82.40;;;;;;4823758;29;20030;-55
2023/06/10 01:24:32;;;;;;;19.00;14.32;;;14.10;83.60;;;;;;4823963;29;20030;-55
2023/06/10 01:27:01;;;;;;;19.42;14.13;;;14.10;79.20;;;;;;4823666;29;20049;-56
2023/06/10 01:29:52;;;;;;;22.48;12.20;;;14.10;79.30;;;;;;4823833;29;20408;-55
2023/06/10 01:32:24;;;;;;;16.17;12.18;;;14.00;69.60;;;;;;4823688;29;20062;-54
2023/06/10 01:34:51;;;;;;;23.77;13.07;;;14.00;70.30;;;;;;4823573;29;20473;-54
2023/06/10 01:37:21;;;;;;;16.20;11.18;;;13.90;69.70;;;;;;4823688;29;20038;-57
2023/06/10 01:39:48;;;;;;;24.90;12.43;;;13.90;70.00;;;;;;4823754;29;20075;-56
2023/06/10 01:42:15;;;;;;;12.65;11.32;;;13.90;73.90;;;;;;4819000;29;20126;-56
2023/06/10 01:44:41;;;;;;;15.27;11.10;;;13.90;73.10;;;;;;4805185;29;20054;-54
2023/06/10 01:47:08;;;;;;;18.98;12.27;;;13.90;71.20;;;;;;4805183;29;20093;-56
2023/06/10 01:49:34;;;;;;;17.08;11.05;;;13.80;74.50;;;;;;4805212;29;20519;-52
2023/06/10 01:52:00;;;;;;;15.10;10.95;;;13.80;75.00;;;;;;4804990;29;20042;-56
2023/06/10 01:54:25;;;;;;;17.48;10.95;;;13.70;77.20;;;;;;4819308;29;20140;-56
2023/06/10 01:56:52;;;;;;;13.55;12.07;;;13.80;76.70;;;;;;4805052;29;20035;-54
2023/06/10 01:59:17;;;;;;;17.35;11.40;;;13.70;77.10;;;;;;4805062;29;20057;-53
2023/06/10 02:01:43;;;;;;;14.27;12.15;;;13.70;76.70;;;;;;4804952;29;20043;-55
2023/06/10 02:04:08;;;;;;;21.23;11.63;;;13.70;78.00;;;;;;4804882;29;20031;-56
2023/06/10 02:06:35;;;;;;;14.00;11.68;;;13.70;80.00;;;;;;4805063;29;20033;-55
2023/06/10 02:09:01;;;;;;;16.13;12.55;;;13.70;81.90;;;;;;4804906;29;20050;-55
2023/06/10 02:11:26;;;;;;;22.40;13.95;;;13.60;83.00;;;;;;4804944;29;20031;-54
2023/06/10 02:13:52;;;;;;;18.23;12.15;;;13.60;86.30;;;;;;4804937;29;20041;-54
2023/06/10 02:16:18;;;;;;;16.63;11.73;;;13.60;87.10;;;;;;4804738;29;20019;-52
2023/06/10 02:18:44;;;;;;;16.23;11.73;;;13.60;84.10;;;;;;4804879;29;20057;-55
2023/06/10 02:21:10;;;;;;;16.52;12.10;;;13.60;80.40;;;;;;4803820;29;20023;-53
2023/06/10 02:23:36;;;;;;;14.63;11.48;;;13.60;80.40;;;;;;4804869;29;20042;-54
2023/06/10 02:26:02;;;;;;;12.77;11.20;;;13.50;78.80;;;;;;4804540;29;20058;-55
2023/06/10 02:28:27;;;;;;;15.93;12.45;;;13.50;78.40;;;;;;4804700;29;20062;-53
2023/06/10 02:30:53;;;;;;;21.80;13.98;;;13.40;81.50;;;;;;4804749;29;20548;-55
2023/06/10 02:33:19;;;;;;;15.85;14.15;;;13.30;84.90;;;;;;4804515;29;20651;-54
2023/06/10 02:35:45;;;;;;;16.50;13.25;;;13.20;89.00;;;;;;4804640;29;20027;-56
2023/06/10 02:38:11;;;;;;;21.60;16.63;;;13.20;89.70;;;;;;4804593;29;20050;-54
2023/06/10 02:40:37;;;;;;;17.08;12.98;;;13.20;90.80;;;;;;4804542;29;20031;-53
2023/06/10 02:43:02;;;;;;;15.85;12.98;;;13.20;89.10;;;;;;4804548;29;20039;-54
2023/06/10 02:45:28;;;;;;;17.95;12.32;;;13.20;87.70;;;;;;4804489;29;20027;-56
2023/06/10 02:47:53;;;;;;;17.50;12.55;;;13.20;83.90;;;;;;4804611;29;20027;-55
2023/06/10 02:50:19;;;;;;;17.80;12.25;;;13.20;81.00;;;;;;4804407;29;20019;-55
2023/06/10 02:52:45;;;;;;;13.07;10.30;;;13.10;80.50;;;;;;4804514;29;20033;-56
2023/06/10 02:55:11;;;;;;;15.57;10.60;;;13.10;79.60;;;;;;4804290;29;20062;-55
2023/06/10 02:57:37;;;;;;;16.08;10.80;;;12.90;73.10;;;;;;4804350;29;20537;-52
2023/06/10 03:00:08;;;;;;;17.80;11.25;;;12.90;75.20;;;;;;4804292;29;20092;-52
2023/06/10 03:02:36;;;;;;;12.45;10.25;;;12.90;73.50;;;;;;4804369;29;20092;-54
2023/06/10 03:05:02;;;;;;;13.85;10.23;;;12.90;76.90;;;;;;4818237;29;20117;-55
2023/06/10 03:07:28;;;;;;;14.02;10.85;;;12.90;78.80;;;;;;4804386;29;20079;-54
2023/06/10 03:09:54;;;;;;;13.30;10.50;;;12.90;72.50;;;;;;4804402;29;20035;-55
2023/06/10 03:12:19;;;;;;;13.43;10.98;;;12.80;69.30;;;;;;4804269;29;20080;-54
2023/06/10 03:14:45;;;;;;;14.20;10.30;;;12.80;70.20;;;;;;4818291;29;20567;-55
2023/06/10 03:17:11;;;;;;;13.98;9.77;;;12.80;71.40;;;;;;4804069;29;20160;-52
2023/06/10 03:19:37;;;;;;;12.63;10.45;;;12.80;72.70;;;;;;4804380;29;20034;-54
2023/06/10 03:22:14;;;;;;;12.13;9.88;;;12.80;72.10;;;;;;4804092;29;20070;-55
2023/06/10 03:24:40;;;;;;;12.77;10.25;;;12.80;68.70;;;;;;4804186;29;20110;-55
2023/06/10 03:27:11;;;;;;;13.10;11.00;;;12.70;68.30;;;;;;4803989;29;20067;-53
2023/06/10 03:29:37;;;;;;;16.38;11.70;;;12.70;74.00;;;;;;4804119;29;20096;-52
2023/06/10 03:32:03;;;;;;;17.10;10.48;;;12.70;78.80;;;;;;4805114;29;20061;-54
2023/06/10 03:34:29;;;;;;;16.23;12.25;;;12.60;74.00;;;;;;4807612;29;20039;-54
2023/06/10 03:36:56;;;;;;;14.15;11.23;;;12.60;83.90;;;;;;4807388;29;20043;-56
2023/06/10 03:39:23;;;;;;;17.92;10.85;;;12.60;82.30;;;;;;4807624;29;20023;-55
2023/06/10 03:41:49;;;;;;;12.75;10.63;;;12.60;84.00;;;;;;4807328;29;20038;-55
2023/06/10 03:44:15;;;;;;;13.98;11.00;;;12.60;84.20;;;;;;4807334;29;20726;-56
2023/06/10 03:46:40;;;;;;;17.08;13.40;;;12.60;83.20;;;;;;4806112;29;20039;-56
2023/06/10 03:49:06;;;;;;;17.75;12.73;;;12.60;87.50;;;;;;4807162;29;20031;-54
2023/06/10 03:51:32;;;;;;;15.73;11.88;;;12.60;90.50;;;;;;4820972;29;20376;-55
2023/06/10 03:53:57;;;;;;;19.48;12.05;;;12.70;90.50;;;;;;4806976;29;20475;-55
2023/06/10 03:56:23;;;;;;;13.57;11.73;;;12.80;90.80;;;;;;4807229;29;20037;-55
2023/06/10 03:58:49;;;;;;;20.65;12.40;;;12.90;90.80;;;;;;4807153;29;20035;-53
2023/06/10 04:01:15;;;;;;;15.13;13.55;;;12.90;90.90;;;;;;4806963;29;20055;-55
2023/06/10 04:03:41;;;;;;;22.13;15.65;;;13.10;90.90;;;;;;4806955;29;20379;-53
2023/06/10 04:06:07;;;;;;;22.30;18.10;;;13.30;95.50;;;;;;4806961;29;20034;-53
2023/06/10 04:08:33;;;;;;;21.13;16.65;;;13.60;99.70;;;;;;4807127;29;20088;-54
2023/06/10 04:10:59;;;;;;;23.23;18.00;;;13.80;99.90;;;;;;4806757;29;20087;-54
2023/06/10 04:13:24;;;;;;;24.75;16.48;;;14.10;99.90;;;;;;4806916;29;20110;-54
2023/06/10 04:15:50;;;;;;;19.75;16.38;;;14.30;99.90;;;;;;4806884;29;20027;-56
2023/06/10 04:18:16;;;;;;;24.85;17.23;;;14.40;99.90;;;;;;4806773;29;20031;-55
2023/06/10 04:20:42;;;;;;;22.33;19.00;;;14.60;99.90;;;;;;4806663;29;20031;-54
2023/06/10 04:23:08;;;;;;;21.83;16.60;;;14.70;99.60;;;;;;4806415;29;20046;-53
2023/06/10 04:25:34;;;;;;;18.42;16.27;;;14.80;98.40;;;;;;4806464;29;20478;-54
2023/06/10 04:28:00;;;;;;;20.63;16.67;;;15.00;97.80;;;;;;4806551;29;20019;-55
2023/06/10 04:30:25;;;;;;;17.63;15.73;;;15.10;96.60;;;;;;4806483;29;20122;-54
2023/06/10 04:32:52;;;;;;;19.70;16.83;;;15.10;95.60;;;;;;4806605;29;20092;-55
2023/06/10 04:35:17;;;;;;;19.25;15.93;;;15.20;95.80;;;;;;4806278;29;20122;-54
2023/06/10 04:37:43;;;;;;;20.88;17.30;;;15.30;95.20;;;;;;4806343;29;20126;-55
2023/06/10 04:40:09;;;;;;;21.85;17.33;;;15.30;94.60;;;;;;4806269;29;20038;-53
2023/06/10 04:42:35;;;;;;;17.77;15.85;;;15.40;94.60;;;;;;4805994;29;20046;-54
2023/06/10 04:45:03;;;;;;;18.70;16.60;;;15.50;93.80;;;;;;4805367;29;20557;-53
2023/06/10 04:47:33;;;;;;;22.00;16.80;;;15.60;93.90;;;;;;4806290;29;20039;-55
2023/06/10 04:50:03;;;;;;;16.52;14.75;;;15.60;93.00;;;;;;4806079;29;20027;-55
2023/06/10 04:52:28;;;;;;;17.98;15.88;;;15.60;92.60;;;;;;4806203;29;20026;-52
2023/06/10 04:54:54;;;;;;;17.25;15.45;;;15.80;92.50;;;;;;4806216;29;20429;-52
2023/06/10 04:57:21;;;;;;;19.90;16.20;;;15.90;91.30;;;;;;4806118;29;20031;-56
2023/06/10 04:59:47;;;;;;;18.48;15.23;;;16.00;89.90;;;;;;4806076;29;20066;-52
2023/06/10 05:02:13;;;;;;;22.55;15.82;;;16.00;86.80;;;;;;4805850;29;20122;-56
2023/06/10 05:04:39;;;;;;;24.05;15.80;;;16.00;85.50;;;;;;4806106;29;20428;-55
2023/06/10 05:07:05;;;;;;;22.02;16.50;;;16.10;87.80;;;;;;4805882;29;20039;-55
2023/06/10 05:09:30;;;;;;;17.15;14.15;;;16.10;87.20;;;;;;4805798;29;20527;-55
2023/06/10 05:11:56;;;;;;;17.15;15.23;;;16.10;84.20;;;;;;4805791;29;20041;-52
2023/06/10 05:14:22;;;;;;;18.52;15.02;;;16.20;81.80;;;;;;4805870;29;20031;-53
2023/06/10 05:16:48;;;;;;;15.52;13.63;;;16.20;79.80;;;;;;4805776;29;20031;-54
2023/06/10 05:19:16;;;;;;;17.08;12.98;;;16.20;78.40;;;;;;4819509;29;20126;-56
2023/06/10 05:21:41;;;;;;;20.52;14.68;;;16.20;73.90;;;;;;4819670;29;20031;-53
2023/06/10 05:24:07;;;;;;;15.73;14.02;;;16.30;74.70;;;;;;4819383;29;20038;-55
2023/06/10 05:26:37;;;;;;;15.27;11.90;;;16.40;72.70;;;;;;4805458;29;20058;-53
2023/06/10 05:29:03;;;;;;;18.10;12.88;;;16.50;68.10;;;;;;4805468;29;20046;-52
2023/06/10 05:31:28;;;;;;;26.48;12.95;;;16.50;64.70;;;;;;4805310;29;20080;-56
2023/06/10 05:33:54;;;;;;;14.18;12.10;;;16.50;62.10;;;;;;4804388;29;20122;-55
2023/06/10 05:36:20;;;;;;;17.75;12.30;;;16.60;60.50;;;;;;4818014;29;20064;-56
2023/06/10 05:38:46;;;;;;;13.27;11.18;;;16.60;56.40;;;;;;4823644;29;20109;-55
2023/06/10 05:41:11;;;;;;;13.65;11.65;;;16.60;60.70;;;;;;4823512;29;20037;-52
2023/06/10 05:43:37;;;;;;;13.65;11.90;;;16.60;54.20;;;;;;4823393;29;20495;-56
2023/06/10 05:46:03;;;;;;;13.63;11.10;;;16.70;54.10;;;;;;4823190;29;20045;-55
2023/06/10 05:48:28;;;;;;;14.52;12.20;;;16.80;53.90;;;;;;4823492;29;20127;-55
2023/06/10 05:50:54;;;;;;;17.70;11.77;;;16.90;53.80;;;;;;4823354;29;20041;-55
2023/06/10 05:53:20;;;;;;;19.80;12.57;;;16.90;54.10;;;;;;4823225;29;20030;-54
2023/06/10 05:55:46;;;;;;;12.80;11.48;;;17.10;48.10;;;;;;4823269;29;20042;-55
2023/06/10 05:58:12;;;;;;;16.40;12.23;;;17.20;50.40;;;;;;4823185;29;20039;-53
2023/06/10 06:00:39;;;;;;;15.80;12.60;;;17.30;41.00;;;;;;4823264;29;20030;-55
2023/06/10 06:03:08;;;;;;;15.68;11.32;;;17.40;42.20;;;;;;4822981;29;20057;-55
2023/06/10 06:05:35;;;;;;;12.32;10.68;;;17.40;30.00;;;;;;4837051;29;20167;-56
2023/06/10 06:08:10;;;;;;;11.63;10.43;;;17.50;23.80;;;;;;4823127;29;20042;-54
2023/06/10 06:10:36;;;;;;;16.45;9.30;;;17.50;13.00;;;;;;4823106;29;20034;-56
2023/06/10 06:13:01;;;;;;;12.55;10.93;;;17.70;17.50;;;;;;4823185;29;20068;-55
2023/06/10 06:15:27;;;;;;;12.52;11.23;;;17.80;10.40;;;;;;4823152;29;20114;-56
2023/06/10 06:17:53;;;;;;;11.38;10.18;;;17.80;13.80;;;;;;4823365;29;20375;-53
2023/06/10 06:20:19;;;;;;;13.38;10.65;;;17.90;1.00;;;;;;4823029;29;20039;-54
2023/06/10 06:22:45;;;;;;;10.20;8.57;;;17.90;1.00;;;;;;4822983;29;20031;-52
2023/06/10 06:25:11;;;;;;;11.63;7.82;;;18.00;1.00;;;;;;4822850;29;20045;-56
2023/06/10 06:27:37;;;;;;;9.50;8.50;;;18.00;1.00;;;;;;4823036;29;20057;-55
2023/06/10 06:30:03;;;;;;;9.57;8.38;;;18.10;1.00;;;;;;4822667;29;20037;-56
2023/06/10 06:32:28;;;;;;;10.27;9.05;;;18.30;1.00;;;;;;4822987;29;20363;-56
2023/06/10 06:34:54;;;;;;;11.25;8.65;;;18.30;1.00;;;;;;4822919;29;20111;-52
2023/06/10 06:37:26;;;;;;;10.10;8.95;;;18.40;1.00;;;;;;4822739;29;20034;-56
2023/06/10 06:39:53;;;;;;;11.25;8.45;;;18.60;1.00;;;;;;4823013;29;20034;-57
2023/06/10 06:42:19;;;;;;;11.73;7.68;;;18.60;1.00;;;;;;4822556;29;20123;-55
2023/06/10 06:44:46;;;;;;;12.02;9.95;;;18.70;1.00;;;;;;4822869;29;20426;-54
2023/06/10 06:47:11;;;;;;;15.10;9.55;;;18.70;1.00;;;;;;4822783;29;20159;-53
2023/06/10 06:49:37;;;;;;;16.17;9.00;;;18.80;1.00;;;;;;4822776;29;20060;-54
2023/06/10 06:52:03;;;;;;;11.63;8.60;;;18.90;1.00;;;;;;4822465;29;20046;-56
2023/06/10 06:54:29;;;;;;;10.30;7.82;;;19.10;1.00;;;;;;4822640;29;20036;-55
2023/06/10 06:56:55;;;;;;;9.50;8.55;;;19.30;1.00;;;;;;4822578;29;20408;-55
2023/06/10 06:59:20;;;;;;;11.38;8.73;;;19.40;1.00;;;;;;4822524;29;20049;-55
2023/06/10 07:01:46;;;;;;;10.70;8.85;;;19.40;1.00;;;;;;4822483;29;20636;-55
2023/06/10 07:04:14;;;;;;;14.85;8.93;;;19.40;1.00;;;;;;4822441;29;20351;-56
2023/06/10 07:06:40;;;;;;;10.20;8.23;;;19.50;1.00;;;;;;4823397;29;20034;-52
2023/06/10 07:09:06;;;;;;;11.18;8.65;;;19.40;1.00;;;;;;4825929;29;20026;-55
2023/06/10 07:11:32;;;;;;;11.52;8.73;;;19.50;1.00;;;;;;4825882;29;20609;-57
2023/06/10 07:13:57;;;;;;;10.00;8.77;;;19.60;1.00;;;;;;4825788;29;20038;-56
2023/06/10 07:16:23;;;;;;;13.55;9.23;;;19.50;1.00;;;;;;4825837;29;20394;-55
2023/06/10 07:18:48;;;;;;;10.82;9.32;;;19.70;1.00;;;;;;4825721;29;20660;-55
2023/06/10 07:21:14;;;;;;;14.40;9.70;;;19.80;1.00;;;;;;4825523;29;20053;-53
2023/06/10 07:23:43;;;;;;;16.02;9.90;;;20.00;1.00;;;;;;4825551;29;20039;-55
2023/06/10 07:26:10;;;;;;;10.85;9.35;;;20.10;1.00;;;;;;4825387;29;20204;-58
2023/06/10 07:28:37;;;;;;;14.48;9.57;;;20.20;1.00;;;;;;4825795;29;20058;-57
2023/06/10 07:31:03;;;;;;;10.80;9.70;;;20.30;1.00;;;;;;4825580;29;20030;-56
2023/06/10 07:33:29;;;;;;;10.73;9.63;;;20.30;99.90;;;;;;4825600;29;20616;-57
2023/06/10 07:35:54;;;;;;;12.55;9.93;;;20.20;99.90;;;;;;4825745;29;20121;-57
2023/06/10 07:38:20;;;;;;;11.30;9.52;;;20.10;99.90;;;;;;4839411;29;20467;-61
2023/06/10 07:40:47;;;;;;;14.20;9.75;;;20.10;99.90;;;;;;4825489;29;20064;-58
2023/06/10 07:43:13;;;;;;;14.55;11.00;;;20.20;99.90;;;;;;4825209;29;20050;-58
2023/06/10 07:45:42;;;;;;;13.90;11.27;;;20.10;99.90;;;;;;4825431;29;20367;-59
2023/06/10 07:48:08;;;;;;;11.88;10.13;;;20.20;99.90;;;;;;4825282;29;20069;-58
2023/06/10 07:50:34;;;;;;;12.10;10.90;;;20.30;99.90;;;;;;4825174;29;20026;-58
2023/06/10 07:53:00;;;;;;;12.32;10.48;;;20.50;99.90;;;;;;4825073;29;20046;-59
2023/06/10 07:55:26;;;;;;;10.75;9.68;;;20.50;99.90;;;;;;4825303;29;20475;-57
2023/06/10 07:57:52;;;;;;;10.93;9.82;;;20.70;99.90;;;;;;4825213;29;20035;-58
2023/06/10 08:00:18;;;;;;;13.30;10.02;;;20.60;99.90;;;;;;4825046;29;20039;-59
2023/06/10 08:02:44;;;;;;;10.70;9.43;;;20.40;99.90;;;;;;4825004;29;20045;-59
2023/06/10 08:05:10;;;;;;;9.73;8.50;;;20.50;99.90;;;;;;4824921;29;20478;-59
2023/06/10 08:07:35;;;;;;;11.18;9.48;;;20.70;99.90;;;;;;4825044;29;20561;-59
2023/06/10 08:10:02;;;;;;;10.43;8.27;;;20.90;99.90;;;;;;4825008;29;20031;-59
2023/06/10 08:12:27;;;;;;;10.02;8.05;;;21.00;99.90;;;;;;4824785;29;20074;-59
2023/06/10 08:14:54;;;;;;;9.55;8.50;;;21.10;99.90;;;;;;4825040;29;20398;-59
2023/06/10 08:17:20;;;;;;;12.90;10.02;;;21.30;99.90;;;;;;4824756;29;20092;-59
2023/06/10 08:19:46;;;;;;;33.83;18.42;;;21.60;99.90;;;;;;4824769;29;20510;-59
2023/06/10 08:22:11;;;;;;;10.13;9.13;;;21.80;1.00;;;;;;4824671;29;20507;-59
2023/06/10 08:24:37;;;;;;;20.08;10.32;;;21.80;76.10;;;;;;4824675;29;20109;-59
2023/06/10 08:27:03;;;;;;;11.88;9.18;;;21.70;99.90;;;;;;4824479;29;20058;-59
2023/06/10 08:29:31;;;;;;;10.38;8.63;;;21.90;99.90;;;;;;4824586;29;20062;-59
2023/06/10 08:31:57;;;;;;;9.60;8.18;;;21.80;99.90;;;;;;4838534;29;20033;-59
2023/06/10 08:34:23;;;;;;;8.90;7.97;;;22.00;1.00;;;;;;4823378;29;20110;-58
2023/06/10 08:36:54;;;;;;;14.43;8.82;;;22.10;99.90;;;;;;4824531;29;20049;-57
2023/06/10 08:39:23;;;;;;;16.33;8.40;;;22.30;99.90;;;;;;4824540;29;20462;-57
2023/06/10 08:42:19;;;;;;;9.82;8.60;;;22.30;99.90;;;;;;4824577;29;20027;-53
2023/06/10 08:44:46;;;;;;;10.90;9.65;;;22.40;99.90;;;;;;4824518;29;20023;-57
2023/06/10 08:47:16;;;;;;;10.23;8.90;;;22.30;1.00;;;;;;4822123;29;20037;-57
2023/06/10 08:49:47;;;;;;;12.18;9.88;;;22.40;1.00;;;;;;4838125;29;20470;-57
2023/06/10 08:52:20;;;;;;;15.23;9.85;;;22.50;1.00;;;;;;4824090;29;20042;-54
2023/06/10 08:54:56;;;;;;;14.45;9.70;;;22.50;99.90;;;;;;4824330;29;20126;-56
2023/06/10 08:57:23;;;;;;;11.20;9.98;;;22.50;1.00;;;;;;4824387;29;20045;-58
2023/06/10 08:59:49;;;;;;;13.27;9.80;;;22.60;99.90;;;;;;4823729;29;20091;-57
2023/06/10 09:02:15;;;;;;;15.27;11.38;;;22.70;99.90;;;;;;4824022;29;20141;-57
2023/06/10 09:04:45;;;;;;;17.10;11.27;;;22.80;99.90;;;;;;4838182;29;20033;-57
2023/06/10 09:07:14;;;;;;;12.02;10.70;;;23.10;99.90;;;;;;4823881;29;20038;-56
2023/06/10 09:09:41;;;;;;;16.02;10.88;;;23.20;90.20;;;;;;4838109;29;20121;-58
2023/06/10 09:12:07;;;;;;;20.00;12.95;;;23.20;1.00;;;;;;4823963;29;20034;-56
2023/06/10 09:14:33;;;;;;;14.25;10.95;;;23.00;1.00;;;;;;4823834;29;20034;-58
2023/06/10 09:16:59;;;;;;;20.48;12.43;;;23.20;99.90;;;;;;4823949;29;20099;-57
2023/06/10 09:19:28;;;;;;;18.30;11.63;;;23.40;99.90;;;;;;4823972;29;20039;-55
2023/06/10 09:21:54;;;;;;;16.27;12.63;;;23.80;1.00;;;;;;4823868;29;20042;-57
2023/06/10 09:24:24;;;;;;;13.95;11.63;;;24.00;1.00;;;;;;4823891;29;20036;-58
2023/06/10 09:26:50;;;;;;;19.63;12.13;;;24.00;1.00;;;;;;4823636;29;20360;-57
2023/06/10 09:29:16;;;;;;;16.80;12.77;;;23.90;29.60;;;;;;4823177;29;20035;-56
2023/06/10 09:31:43;;;;;;;13.35;11.07;;;23.80;99.90;;;;;;4823827;29;20537;-58
2023/06/10 09:34:15;;;;;;;11.07;9.98;;;24.10;99.90;;;;;;4823463;29;20052;-57
2023/06/10 09:36:41;;;;;;;16.65;11.75;;;24.60;99.90;;;;;;4823613;29;20075;-58
2023/06/10 09:39:18;;;;;;;13.10;11.80;;;24.60;99.90;;;;;;4823521;29;20030;-56
2023/06/10 09:41:45;;;;;;;12.68;10.48;;;24.50;99.90;;;;;;4823423;29;20022;-57
2023/06/10 09:44:18;;;;;;;13.57;9.45;;;24.30;99.90;;;;;;4823549;29;20428;-56
2023/06/10 09:46:50;;;;;;;14.50;9.98;;;24.40;99.90;;;;;;4823584;29;20030;-57
2023/06/10 09:49:17;;;;;;;12.27;9.13;;;24.30;99.90;;;;;;4823447;29;20082;-56
2023/06/10 09:51:53;;;;;;;10.15;9.15;;;24.50;99.90;;;;;;4823492;29;20026;-57
2023/06/10 09:54:20;;;;;;;10.45;8.50;;;24.90;1.00;;;;;;4812172;29;20028;-58
2023/06/10 09:56:52;;;;;;;10.98;9.52;;;25.10;1.00;;;;;;4805064;29;20034;-56
2023/06/10 09:59:31;;;;;;;11.85;9.75;;;24.80;99.90;;;;;;4808605;29;20098;-57
2023/06/10 10:01:57;;;;;;;12.48;8.75;;;24.70;99.90;;;;;;4804698;29;20026;-56
2023/06/10 10:04:24;;;;;;;9.43;7.97;;;24.50;99.90;;;;;;4804661;29;20553;-58
2023/06/10 10:06:50;;;;;;;10.98;8.25;;;24.70;99.90;;;;;;4804916;29;20034;-56
2023/06/10 10:09:16;;;;;;;9.73;8.13;;;24.70;99.90;;;;;;4804685;29;20035;-58
2023/06/10 10:11:43;;;;;;;10.77;8.02;;;24.90;99.90;;;;;;4804937;29;20429;-57
2023/06/10 10:17:33;;;;;;;8.15;7.35;;;24.90;99.90;;;;;;4804703;29;20029;-58
2023/06/10 10:20:03;;;;;;;10.32;7.22;;;25.10;1.40;;;;;;4804361;29;20118;-57
2023/06/10 10:22:39;;;;;;;8.50;7.63;;;25.60;89.60;;;;;;4804405;29;20033;-56
2023/06/10 10:25:20;;;;;;;9.23;7.40;;;25.70;1.00;;;;;;4804328;29;20178;-56
2023/06/10 10:27:56;;;;;;;10.10;6.13;;;25.50;1.00;;;;;;4804792;29;20066;-57
2023/06/10 10:30:24;;;;;;;7.60;6.28;;;25.90;99.90;;;;;;4804507;29;20506;-56
2023/06/10 10:32:55;;;;;;;6.57;5.85;;;26.10;99.90;;;;;;4804630;29;20041;-56
2023/06/10 10:35:23;;;;;;;8.52;5.65;;;26.60;99.90;;;;;;4804546;29;20126;-57
2023/06/10 10:37:53;;;;;;;6.30;5.70;;;26.80;99.90;;;;;;4804748;29;20552;-57
2023/06/10 10:40:24;;;;;;;5.80;5.25;;;27.10;99.90;;;;;;4804375;29;20086;-58
2023/06/10 10:42:50;;;;;;;6.60;5.25;;;27.50;44.10;;;;;;4803788;29;20034;-58
2023/06/10 10:45:17;;;;;;;6.85;5.72;;;27.90;90.40;;;;;;4803271;29;20033;-55
2023/06/10 10:47:45;;;;;;;6.15;5.45;;;27.90;12.50;;;;;;4804420;29;20490;-58
2023/06/10 10:50:16;;;;;;;6.95;6.25;;;27.50;1.00;;;;;;4804413;29;20117;-56
2023/06/10 10:53:07;;;;;;;9.63;5.68;;;27.20;1.00;;;;;;4804403;29;20046;-57
2023/06/10 10:55:33;;;;;;;10.35;6.18;;;27.00;13.00;;;;;;4801886;29;20043;-56
2023/06/10 10:58:09;;;;;;;8.98;6.55;;;27.20;24.20;;;;;;4804291;29;20379;-57
2023/06/10 11:00:43;;;;;;;7.38;6.68;;;26.80;38.40;;;;;;4804513;29;20119;-56
2023/06/10 11:03:14;;;;;;;8.15;6.82;;;26.50;28.50;;;;;;4804207;29;20387;-58
2023/06/10 11:05:48;;;;;;;8.20;7.40;;;25.90;34.30;;;;;;4804467;29;20395;-58
2023/06/10 11:08:15;;;;;;;8.85;7.43;;;25.20;75.80;;;;;;4804053;29;20198;-55
2023/06/10 11:10:50;;;;;;;10.55;7.05;;;25.10;83.00;;;;;;4804282;29;20540;-56
2023/06/10 11:13:18;;;;;;;9.65;6.32;;;24.30;99.90;;;;;;4803974;29;20559;-57
2023/06/10 11:15:51;;;;;;;7.80;7.00;;;24.10;99.90;;;;;;4804155;29;20052;-56
2023/06/10 11:18:27;;;;;;;8.15;7.35;;;24.00;99.90;;;;;;4803984;29;20049;-57
2023/06/10 11:20:56;;;;;;;7.60;6.80;;;23.80;99.90;;;;;;4804126;29;20034;-55
2023/06/10 11:23:28;;;;;;;10.00;7.70;;;23.70;99.90;;;;;;4803744;29;20039;-57
2023/06/10 11:26:31;;;;;;;8.70;7.80;;;23.80;99.90;;;;;;4804032;29;20047;-57
2023/06/10 11:28:56;;;;;;;9.48;7.45;;;23.90;99.90;;;;;;4804103;29;20027;-56
2023/06/10 11:31:23;;;;;;;7.57;6.68;;;23.80;99.90;;;;;;4804105;29;20027;-57
2023/06/10 11:33:55;;;;;;;7.20;6.07;;;24.00;99.90;;;;;;4804006;29;20031;-57
2023/06/10 11:36:21;;;;;;;8.93;6.40;;;23.90;99.90;;;;;;4803906;29;20035;-57
2023/06/10 11:38:48;;;;;;;9.60;6.05;;;23.90;99.90;;;;;;4803963;29;20483;-57
2023/06/10 11:41:17;;;;;;;6.50;5.55;;;24.00;99.90;;;;;;4803844;29;20051;-55
2023/06/10 11:43:44;;;;;;;8.77;5.53;;;23.90;99.90;;;;;;4803698;29;20117;-56
2023/06/10 11:46:10;;;;;;;6.43;5.82;;;23.90;99.90;;;;;;4817763;29;20067;-56
2023/06/10 11:48:36;;;;;;;6.63;6.00;;;24.30;99.90;;;;;;4803852;29;20536;-58
2023/06/10 11:51:07;;;;;;;5.88;5.30;;;24.20;99.90;;;;;;4803840;29;20129;-56
2023/06/10 11:53:33;;;;;;;6.13;5.53;;;24.20;99.90;;;;;;4805567;29;20452;-56
2023/06/10 11:55:59;;;;;;;9.27;5.45;;;24.30;99.90;;;;;;4807081;29;20043;-58
2023/06/10 11:58:25;;;;;;;6.60;5.70;;;24.60;99.90;;;;;;4806939;29;20031;-53
2023/06/10 12:00:53;;;;;;;5.82;5.28;;;25.00;99.90;;;;;;4806834;29;20701;-56
2023/06/10 12:03:19;;;;;;;6.43;5.82;;;25.50;99.90;;;;;;4806587;29;20034;-58
2023/06/10 12:06:00;;;;;;;6.40;5.07;;;25.70;99.90;;;;;;4820778;29;20490;-55
2023/06/10 12:08:27;;;;;;;6.50;4.78;;;26.00;99.90;;;;;;4806742;29;20039;-56
2023/06/10 12:10:53;;;;;;;5.53;5.03;;;26.60;99.90;;;;;;4820737;29;20039;-57
2023/06/10 12:13:19;;;;;;;5.82;5.18;;;27.30;46.80;;;;;;4806523;29;20082;-56
2023/06/10 12:15:45;;;;;;;6.47;4.60;;;28.00;50.00;;;;;;4806718;29;20035;-57
2023/06/10 12:18:21;;;;;;;5.65;5.15;;;28.90;1.00;;;;;;4806757;29;20704;-56
2023/06/10 12:20:48;;;;;;;6.25;4.90;;;29.50;1.00;;;;;;4806877;29;20371;-58
2023/06/10 12:23:15;;;;;;;4.97;4.47;;;30.00;1.00;;;;;;4806370;29;20440;-57
2023/06/10 12:25:55;;;;;;;8.40;5.75;;;29.80;1.00;;;;;;4806494;29;20034;-56
2023/06/10 12:28:25;;;;;;;11.10;5.95;;;29.30;1.00;;;;;;4806332;29;20031;-57
2023/06/10 12:31:05;;;;;;;9.70;6.15;;;27.80;1.00;;;;;;4806674;29;20019;-58
2023/06/10 12:33:31;;;;;;;7.78;7.05;;;26.80;1.00;;;;;;4806396;29;20059;-55
2023/06/10 12:35:56;;;;;;;12.57;6.75;;;25.70;1.00;;;;;;4806484;29;20559;-57
2023/06/10 12:38:28;;;;;;;25.50;8.30;;;25.00;1.00;;;;;;4806396;29;20077;-57
2023/06/10 12:41:00;;;;;;;16.25;7.43;;;24.40;99.90;;;;;;4805559;29;20049;-55